createdAt,value
2024-03-02T00:01:08.768Z,8.32
2024-03-02T00:03:35.558Z,10.75
2024-03-02T00:06:04.951Z,8.05
2024-03-02T00:08:34.164Z,9.25
2024-03-02T00:11:02.235Z,8.98
2024-03-02T00:13:31.044Z,8.05
2024-03-02T00:15:58.302Z,8.20
2024-03-02T00:18:36.065Z,9.13
2024-03-02T00:21:04.046Z,8.20
2024-03-02T00:23:32.831Z,8.77
2024-03-02T00:26:01.457Z,9.50
2024-03-02T00:28:36.455Z,12.70
2024-03-02T00:31:15.514Z,8.27
2024-03-02T00:33:45.195Z,9.80
2024-03-02T00:36:13.865Z,12.10
2024-03-02T00:38:48.256Z,10.18
2024-03-02T00:41:32.103Z,10.35
2024-03-02T00:44:04.574Z,10.90
2024-03-02T00:46:35.740Z,10.07
2024-03-02T00:49:04.817Z,9.80
2024-03-02T00:51:32.984Z,8.80
2024-03-02T00:54:06.912Z,11.38
2024-03-02T00:56:35.913Z,8.73
2024-03-02T00:59:02.807Z,9.65
2024-03-02T01:01:29.581Z,8.63
2024-03-02T01:03:56.418Z,7.88
2024-03-02T01:06:23.803Z,10.20
2024-03-02T01:08:53.161Z,7.88
2024-03-02T01:11:23.800Z,8.13
2024-03-02T01:13:51.169Z,9.10
2024-03-02T01:16:17.848Z,10.57
2024-03-02T01:18:44.863Z,9.98
2024-03-02T01:21:11.706Z,9.75
2024-03-02T01:23:38.662Z,10.32
2024-03-02T01:26:05.841Z,8.73
2024-03-02T01:28:32.529Z,9.80
2024-03-02T01:30:59.179Z,9.55
2024-03-02T01:33:25.946Z,10.90
2024-03-02T01:35:52.662Z,8.55
2024-03-02T01:38:19.356Z,7.97
2024-03-02T01:40:46.069Z,8.65
2024-03-02T01:43:12.970Z,8.95
2024-03-02T01:45:39.715Z,8.80
2024-03-02T01:48:10.699Z,7.47
2024-03-02T01:50:37.425Z,11.18
2024-03-02T01:53:04.451Z,7.88
2024-03-02T01:55:32.051Z,10.18
2024-03-02T01:57:59.919Z,7.43
2024-03-02T02:00:27.359Z,8.68
2024-03-02T02:02:55.278Z,9.77
2024-03-02T02:05:22.683Z,9.63
2024-03-02T02:07:49.946Z,9.00
2024-03-02T02:10:16.843Z,8.45
2024-03-02T02:12:43.626Z,8.18
2024-03-02T02:15:24.059Z,10.95
2024-03-02T02:17:50.756Z,9.80
2024-03-02T02:20:17.797Z,7.70
2024-03-02T02:23:14.738Z,7.80
2024-03-02T02:25:41.511Z,7.28
2024-03-02T02:28:08.210Z,9.32
2024-03-02T02:30:34.992Z,8.05
2024-03-02T02:33:02.137Z,11.57
2024-03-02T02:35:29.483Z,9.27
2024-03-02T02:37:57.970Z,10.63
2024-03-02T02:40:24.918Z,11.10
2024-03-02T02:42:53.664Z,8.65
2024-03-02T02:45:21.143Z,7.03
2024-03-02T02:47:47.899Z,11.82
2024-03-02T02:50:14.812Z,10.40
2024-03-02T02:52:44.864Z,11.20
2024-03-02T02:55:13.532Z,12.27
2024-03-02T02:57:41.553Z,8.18
2024-03-02T03:00:21.348Z,11.25
2024-03-02T03:02:51.288Z,9.18
2024-03-02T03:05:19.052Z,9.60
2024-03-02T03:07:46.360Z,7.35
2024-03-02T03:10:14.483Z,8.48
2024-03-02T03:12:43.408Z,10.30
2024-03-02T03:15:11.364Z,8.90
2024-03-02T03:17:38.718Z,7.70
2024-03-02T03:20:07.254Z,7.82
2024-03-02T03:22:34.096Z,7.25
2024-03-02T03:25:01.191Z,7.60
2024-03-02T03:27:28.347Z,7.43
2024-03-02T03:29:55.651Z,7.88
2024-03-02T03:32:23.023Z,8.45
2024-03-02T03:34:50.103Z,9.10
2024-03-02T03:37:17.108Z,8.10
2024-03-02T03:39:45.967Z,8.25
2024-03-02T03:42:12.831Z,6.78
2024-03-02T03:44:40.476Z,9.05
2024-03-02T03:47:07.424Z,10.35
2024-03-02T03:49:34.304Z,8.60
2024-03-02T03:52:01.691Z,9.18
2024-03-02T03:54:28.417Z,6.13
2024-03-02T03:56:55.128Z,8.55
2024-03-02T03:59:21.784Z,8.27
2024-03-02T04:01:48.502Z,8.55
2024-03-02T04:04:15.351Z,6.82
2024-03-02T04:06:42.233Z,6.10
2024-03-02T04:09:09.104Z,7.25
2024-03-02T04:11:35.754Z,8.23
2024-03-02T04:14:02.391Z,7.45
2024-03-02T04:16:29.891Z,9.30
2024-03-02T04:18:56.684Z,7.07
2024-03-02T04:21:23.368Z,6.45
2024-03-02T04:23:50.133Z,9.50
2024-03-02T04:26:20.975Z,5.20
2024-03-02T04:31:17.968Z,6.22
2024-03-02T04:33:44.711Z,7.28
2024-03-02T04:36:11.425Z,7.93
2024-03-02T04:38:39.111Z,6.22
2024-03-02T04:41:09.426Z,6.95
2024-03-02T04:43:36.299Z,7.38
2024-03-02T04:46:03.336Z,6.22
2024-03-02T04:48:30.383Z,6.45
2024-03-02T04:50:57.037Z,6.22
2024-03-02T04:53:23.789Z,7.75
2024-03-02T04:56:13.199Z,5.00
2024-03-02T04:58:39.816Z,9.20
2024-03-02T05:01:06.482Z,5.20
2024-03-02T05:03:35.974Z,6.30
2024-03-02T05:06:02.752Z,6.00
2024-03-02T05:08:29.425Z,5.05
2024-03-02T05:10:56.098Z,7.25
2024-03-02T05:13:22.706Z,6.03
2024-03-02T05:15:50.942Z,6.15
2024-03-02T05:18:17.625Z,5.93
2024-03-02T05:20:44.232Z,5.13
2024-03-02T05:23:11.008Z,5.97
2024-03-02T05:25:37.840Z,6.57
2024-03-02T05:28:04.926Z,5.10
2024-03-02T05:30:31.623Z,5.25
2024-03-02T05:32:58.253Z,6.93
2024-03-02T05:35:24.842Z,5.35
2024-03-02T05:37:54.077Z,5.57
2024-03-02T05:40:24.285Z,5.15
2024-03-02T05:42:51.355Z,5.05
2024-03-02T05:45:18.355Z,7.00
2024-03-02T05:47:45.157Z,7.47
2024-03-02T05:50:11.852Z,6.75
2024-03-02T05:52:38.494Z,4.43
2024-03-02T05:55:06.169Z,6.90
2024-03-02T05:57:44.653Z,4.93
2024-03-02T06:00:12.712Z,6.18
2024-03-02T06:02:42.253Z,5.30
2024-03-02T06:05:08.998Z,6.53
2024-03-02T06:07:35.801Z,5.07
2024-03-02T06:10:02.539Z,5.72
2024-03-02T06:12:29.233Z,5.43
2024-03-02T06:14:55.887Z,6.00
2024-03-02T06:17:23.079Z,5.10
2024-03-02T06:19:49.710Z,8.10
2024-03-02T06:22:16.368Z,5.35
2024-03-02T06:24:43.390Z,6.28
2024-03-02T06:27:10.080Z,3.83
2024-03-02T06:29:36.847Z,5.28
2024-03-02T06:32:03.685Z,4.95
2024-03-02T06:34:30.419Z,4.65
2024-03-02T06:36:57.141Z,3.90
2024-03-02T06:39:25.641Z,4.30
2024-03-02T06:41:52.672Z,4.63
2024-03-02T06:44:19.450Z,5.22
2024-03-02T06:46:46.140Z,6.28
2024-03-02T06:49:12.817Z,3.97
2024-03-02T06:51:39.523Z,4.57
2024-03-02T06:54:06.179Z,3.38
2024-03-02T06:56:34.163Z,4.15
2024-03-02T06:59:00.953Z,4.43
2024-03-02T07:01:27.705Z,4.60
2024-03-02T07:03:54.493Z,5.82
2024-03-02T07:06:21.187Z,4.13
2024-03-02T07:08:47.824Z,4.72
2024-03-02T07:11:14.483Z,4.60
2024-03-02T07:13:41.188Z,2.80
2024-03-02T07:16:27.804Z,5.07
2024-03-02T07:18:56.839Z,5.32
2024-03-02T07:21:24.241Z,3.60
2024-03-02T07:23:51.209Z,4.20
2024-03-02T07:28:50.176Z,5.45
2024-03-02T07:31:16.903Z,8.63
2024-03-02T07:33:46.733Z,5.60
2024-03-02T07:36:14.001Z,5.05
2024-03-02T07:38:41.706Z,5.28
2024-03-02T07:41:10.165Z,4.20
2024-03-02T07:43:36.902Z,4.63
2024-03-02T07:46:04.408Z,5.25
2024-03-02T07:48:32.181Z,4.93
2024-03-02T07:51:01.664Z,4.82
2024-03-02T07:53:28.733Z,6.95
2024-03-02T07:55:55.572Z,4.82
2024-03-02T07:58:22.572Z,4.38
2024-03-02T08:00:50.632Z,4.40
2024-03-02T08:03:18.309Z,8.05
2024-03-02T08:05:45.852Z,5.13
2024-03-02T08:08:12.985Z,5.57
2024-03-02T08:10:39.603Z,3.50
2024-03-02T08:13:06.253Z,4.18
2024-03-02T08:15:32.966Z,4.63
2024-03-02T08:17:59.991Z,4.20
2024-03-02T08:20:26.836Z,3.15
2024-03-02T08:22:56.251Z,4.65
2024-03-02T08:25:23.679Z,5.47
2024-03-02T08:27:50.457Z,4.28
2024-03-02T08:30:17.221Z,4.10
2024-03-02T08:32:43.916Z,3.42
2024-03-02T08:35:10.627Z,4.85
2024-03-02T08:37:40.443Z,3.60
2024-03-02T08:40:08.876Z,4.28
2024-03-02T08:42:35.821Z,4.13
2024-03-02T08:45:02.916Z,6.18
2024-03-02T08:47:29.609Z,3.90
2024-03-02T08:49:57.971Z,3.88
2024-03-02T08:52:26.620Z,3.60
2024-03-02T08:54:53.342Z,3.55
2024-03-02T08:57:20.059Z,5.07
2024-03-02T08:59:46.813Z,4.55
2024-03-02T09:02:13.590Z,3.33
2024-03-02T09:04:40.252Z,6.38
2024-03-02T09:07:08.297Z,6.15
2024-03-02T09:09:35.021Z,4.28
2024-03-02T09:12:01.880Z,4.20
2024-03-02T09:14:28.776Z,6.22
2024-03-02T09:16:55.454Z,6.13
2024-03-02T09:19:22.084Z,4.97
2024-03-02T09:21:48.920Z,4.82
2024-03-02T09:24:18.442Z,7.22
2024-03-02T09:26:45.503Z,4.45
2024-03-02T09:29:12.339Z,7.53
2024-03-02T09:31:42.635Z,7.47
2024-03-02T09:34:09.671Z,4.72
2024-03-02T09:36:36.345Z,6.28
2024-03-02T09:39:05.025Z,5.90
2024-03-02T09:41:31.947Z,6.53
2024-03-02T09:43:59.385Z,6.85
2024-03-02T09:46:26.094Z,5.68
2024-03-02T09:48:52.806Z,7.75
2024-03-02T09:51:21.145Z,5.38
2024-03-02T09:53:48.915Z,5.00
2024-03-02T09:56:17.044Z,5.88
2024-03-02T09:58:45.214Z,4.95
2024-03-02T10:01:12.117Z,6.63
2024-03-02T10:03:42.843Z,5.35
2024-03-02T10:06:27.007Z,7.43
2024-03-02T10:08:55.953Z,4.95
2024-03-02T10:11:34.238Z,6.47
2024-03-02T10:14:13.980Z,6.68
2024-03-02T10:16:44.983Z,4.65
2024-03-02T10:19:25.256Z,4.88
2024-03-02T10:21:54.740Z,4.55
2024-03-02T10:24:23.149Z,7.95
2024-03-02T10:26:50.804Z,4.18
2024-03-02T10:29:17.745Z,7.00
2024-03-02T10:31:47.817Z,7.97
2024-03-02T10:34:14.905Z,5.07
2024-03-02T10:36:43.373Z,7.95
2024-03-02T10:39:10.798Z,6.70
2024-03-02T10:41:39.870Z,6.95
2024-03-02T10:44:11.001Z,8.23
2024-03-02T10:46:41.839Z,4.90
2024-03-02T10:51:38.006Z,5.78
2024-03-02T10:54:05.986Z,9.88
2024-03-02T10:56:46.110Z,3.60
2024-03-02T10:59:27.118Z,5.20
2024-03-02T11:02:01.265Z,6.57
2024-03-02T11:04:31.750Z,6.05
2024-03-02T11:07:19.004Z,6.80
2024-03-02T11:10:00.246Z,8.55
2024-03-02T11:12:32.226Z,4.25
2024-03-02T11:15:00.433Z,5.25
2024-03-02T11:17:27.504Z,6.30
2024-03-02T11:19:54.579Z,7.00
2024-03-02T11:22:22.017Z,8.85
2024-03-02T11:24:53.521Z,7.03
2024-03-02T11:27:49.334Z,10.73
2024-03-02T11:30:39.842Z,6.68
2024-03-02T11:33:12.798Z,5.45
2024-03-02T11:35:46.807Z,6.15
2024-03-02T11:38:13.648Z,8.63
2024-03-02T11:40:41.473Z,8.40
2024-03-02T11:43:12.107Z,7.10
2024-03-02T11:48:14.900Z,7.32
2024-03-02T11:50:45.260Z,7.60
2024-03-02T11:53:14.840Z,7.18
2024-03-02T11:55:48.383Z,6.63
2024-03-02T11:58:18.940Z,5.03
2024-03-02T12:00:46.361Z,6.50
2024-03-02T12:03:15.636Z,5.32
2024-03-02T12:05:43.464Z,5.28
2024-03-02T12:08:10.354Z,7.35
2024-03-02T12:10:38.636Z,6.68
2024-03-02T12:13:08.681Z,6.53
2024-03-02T12:15:39.927Z,9.63
2024-03-02T12:18:07.566Z,6.20
2024-03-02T12:20:35.181Z,5.47
2024-03-02T12:23:04.168Z,5.38
2024-03-02T12:25:33.054Z,8.82
2024-03-02T12:28:02.288Z,5.80
2024-03-02T12:30:31.332Z,5.57
2024-03-02T12:32:58.123Z,6.78
2024-03-02T12:35:26.111Z,4.05
2024-03-02T12:37:54.073Z,6.72
2024-03-02T12:40:23.478Z,5.90
2024-03-02T12:42:51.361Z,5.55
2024-03-02T12:45:25.297Z,4.32
2024-03-02T12:47:53.189Z,7.15
2024-03-02T12:50:20.875Z,5.15
2024-03-02T12:52:54.807Z,5.75
2024-03-02T12:55:23.490Z,5.18
2024-03-02T12:57:54.389Z,6.57
2024-03-02T13:00:22.978Z,4.90
2024-03-02T13:02:52.073Z,5.15
2024-03-02T13:05:20.305Z,4.80
2024-03-02T13:07:48.768Z,4.85
2024-03-02T13:10:15.491Z,4.28
2024-03-02T13:12:42.582Z,5.95
2024-03-02T13:15:09.881Z,6.75
2024-03-02T13:17:38.357Z,3.78
2024-03-02T13:20:09.719Z,3.78
2024-03-02T13:22:37.099Z,5.97
2024-03-02T13:25:07.517Z,4.22
2024-03-02T13:27:34.786Z,4.15
2024-03-02T13:30:03.861Z,7.50
2024-03-02T13:32:30.699Z,6.22
2024-03-02T13:34:57.400Z,5.78
2024-03-02T13:37:24.861Z,5.53
2024-03-02T13:39:51.810Z,5.00
2024-03-02T13:42:18.991Z,5.50
2024-03-02T13:44:50.896Z,4.93
2024-03-02T13:47:18.026Z,6.43
2024-03-02T13:49:47.023Z,5.80
2024-03-02T13:52:18.056Z,5.60
2024-03-02T13:54:47.084Z,7.55
2024-03-02T13:57:14.573Z,6.55
2024-03-02T13:59:43.265Z,5.25
2024-03-02T14:02:10.336Z,6.40
2024-03-02T14:04:38.177Z,5.13
2024-03-02T14:07:08.191Z,11.63
2024-03-02T14:09:35.562Z,5.40
2024-03-02T14:12:02.368Z,5.90
2024-03-02T14:14:29.166Z,7.32
2024-03-02T14:16:57.068Z,4.90
2024-03-02T14:19:23.830Z,5.60
2024-03-02T14:21:50.775Z,6.97
2024-03-02T14:24:17.463Z,4.90
2024-03-02T14:26:44.144Z,6.90
2024-03-02T14:29:10.920Z,7.18
2024-03-02T14:31:37.652Z,8.18
2024-03-02T14:34:04.522Z,4.22
2024-03-02T14:36:31.621Z,6.72
2024-03-02T14:38:58.654Z,5.47
2024-03-02T14:41:25.822Z,5.55
2024-03-02T14:43:52.966Z,7.00
2024-03-02T14:46:20.530Z,6.07
2024-03-02T14:48:47.868Z,6.75
2024-03-02T14:51:15.392Z,6.05
2024-03-02T14:53:42.833Z,6.20
2024-03-02T14:56:09.859Z,4.93
2024-03-02T14:58:38.031Z,4.10
2024-03-02T15:01:07.199Z,6.00
2024-03-02T15:03:34.879Z,7.10
2024-03-02T15:06:03.155Z,6.20
2024-03-02T15:08:29.826Z,5.55
2024-03-02T15:10:57.371Z,6.45
2024-03-02T15:13:26.000Z,5.13
2024-03-02T15:15:53.484Z,4.50
2024-03-02T15:18:20.255Z,3.50
2024-03-02T15:20:47.106Z,4.53
2024-03-02T15:23:13.962Z,6.57
2024-03-02T15:25:41.191Z,4.53
2024-03-02T15:28:08.089Z,3.60
2024-03-02T15:30:34.969Z,4.43
2024-03-02T15:33:01.886Z,3.88
2024-03-02T15:35:28.645Z,5.97
2024-03-02T15:37:55.317Z,3.20
2024-03-02T15:40:21.969Z,6.45
2024-03-02T15:42:48.697Z,6.43
2024-03-02T15:45:15.821Z,7.57
2024-03-02T15:47:43.421Z,6.70
2024-03-02T15:50:10.799Z,4.53
2024-03-02T15:52:37.663Z,4.47
2024-03-02T15:55:07.439Z,5.43
2024-03-02T15:57:35.180Z,4.97
2024-03-02T16:00:01.975Z,3.78
2024-03-02T16:04:55.305Z,4.63
2024-03-02T16:07:22.118Z,4.15
2024-03-02T16:09:48.820Z,3.75
2024-03-02T16:12:16.592Z,4.28
2024-03-02T16:14:43.307Z,4.72
2024-03-02T16:17:10.588Z,4.88
2024-03-02T16:19:40.512Z,3.55
2024-03-02T16:22:11.982Z,5.05
2024-03-02T16:24:38.755Z,6.90
2024-03-02T16:27:05.563Z,4.85
2024-03-02T16:29:33.082Z,5.07
2024-03-02T16:32:01.145Z,3.85
2024-03-02T16:34:28.376Z,5.97
2024-03-02T16:36:55.322Z,7.75
2024-03-02T16:39:21.959Z,3.42
2024-03-02T16:41:48.628Z,5.90
2024-03-02T16:44:15.315Z,3.60
2024-03-02T16:46:41.991Z,3.35
2024-03-02T16:49:08.826Z,3.90
2024-03-02T16:51:42.907Z,5.60
2024-03-02T16:54:09.774Z,4.35
2024-03-02T16:56:40.747Z,3.50
2024-03-02T16:59:07.941Z,3.78
2024-03-02T17:01:34.765Z,3.72
2024-03-02T17:04:06.802Z,5.75
2024-03-02T17:06:33.795Z,3.97
2024-03-02T17:09:01.028Z,4.88
2024-03-02T17:11:28.137Z,3.78
2024-03-02T17:13:59.156Z,7.35
2024-03-02T17:16:26.284Z,3.45
2024-03-02T17:18:53.749Z,5.72
2024-03-02T17:21:21.111Z,2.58
2024-03-02T17:23:48.285Z,5.75
2024-03-02T17:26:15.196Z,4.30
2024-03-02T17:28:42.586Z,3.42
2024-03-02T17:31:10.096Z,5.35
2024-03-02T17:33:37.022Z,3.88
2024-03-02T17:36:05.177Z,3.95
2024-03-02T17:38:32.465Z,4.57
2024-03-02T17:40:59.255Z,4.38
2024-03-02T17:43:26.397Z,3.60
2024-03-02T17:45:53.397Z,3.42
2024-03-02T17:48:23.015Z,4.05
2024-03-02T17:50:50.823Z,3.63
2024-03-02T17:53:17.683Z,3.95
2024-03-02T17:55:44.827Z,3.47
2024-03-02T17:58:11.650Z,4.55
2024-03-02T18:00:38.626Z,3.10
2024-03-02T18:03:06.835Z,4.22
2024-03-02T18:05:33.890Z,7.05
2024-03-02T18:08:00.658Z,4.78
2024-03-02T18:10:29.980Z,5.40
2024-03-02T18:12:59.760Z,4.82
2024-03-02T18:15:27.040Z,3.80
2024-03-02T18:17:53.785Z,4.30
2024-03-02T18:20:20.522Z,2.50
2024-03-02T18:22:47.306Z,4.97
2024-03-02T18:25:14.134Z,6.90
2024-03-02T18:27:40.820Z,7.55
2024-03-02T18:30:11.328Z,6.75
2024-03-02T18:35:06.781Z,4.22
2024-03-02T18:37:33.467Z,4.68
2024-03-02T18:40:00.303Z,4.65
2024-03-02T18:42:27.423Z,4.30
2024-03-02T18:44:55.158Z,4.97
2024-03-02T18:47:22.032Z,3.63
2024-03-02T18:49:48.775Z,3.35
2024-03-02T18:52:15.647Z,3.70
2024-03-02T18:54:42.897Z,2.15
2024-03-02T18:57:11.100Z,3.38
2024-03-02T18:59:37.930Z,3.13
2024-03-02T19:02:05.640Z,4.05
2024-03-02T19:04:32.553Z,2.08
2024-03-02T19:06:59.259Z,2.38
2024-03-02T19:09:25.887Z,2.25
2024-03-02T19:11:52.544Z,2.42
2024-03-02T19:14:19.223Z,1.80
2024-03-02T19:16:45.933Z,1.58
2024-03-02T19:19:12.628Z,1.98
2024-03-02T19:21:39.799Z,3.22
2024-03-02T19:24:06.691Z,2.95
2024-03-02T19:26:33.447Z,3.58
2024-03-02T19:29:00.161Z,3.15
2024-03-02T19:31:26.803Z,4.18
2024-03-02T19:33:53.485Z,2.35
2024-03-02T19:36:20.333Z,1.70
2024-03-02T19:38:47.004Z,1.55
2024-03-02T19:41:13.633Z,1.92
2024-03-02T19:43:40.319Z,1.63
2024-03-02T19:46:06.965Z,2.08
2024-03-02T19:48:33.646Z,2.55
2024-03-02T19:51:00.487Z,0.98
2024-03-02T19:53:27.147Z,1.08
2024-03-02T19:55:53.874Z,1.45
2024-03-02T19:58:20.875Z,1.02
2024-03-02T20:00:47.615Z,1.15
2024-03-02T20:03:15.329Z,2.38
2024-03-02T20:05:42.088Z,1.17
2024-03-02T20:08:08.839Z,2.42
2024-03-02T20:10:36.284Z,1.10
2024-03-02T20:13:05.947Z,0.85
2024-03-02T20:15:33.381Z,1.00
2024-03-02T20:18:00.212Z,3.28
2024-03-02T20:20:27.038Z,0.52
2024-03-02T20:22:53.631Z,0.70
2024-03-02T20:25:20.284Z,0.40
2024-03-02T20:27:47.153Z,0.30
2024-03-02T20:30:14.102Z,0.65
2024-03-02T20:32:40.784Z,0.93
2024-03-02T20:35:07.883Z,0.68
2024-03-02T20:37:34.574Z,0.73
2024-03-02T20:40:01.832Z,1.13
2024-03-02T20:42:28.803Z,0.47
2024-03-02T20:44:55.579Z,0.82
2024-03-02T20:47:23.862Z,0.38
2024-03-02T20:49:52.391Z,1.13
2024-03-02T20:52:20.945Z,1.05
2024-03-02T20:54:48.145Z,0.93
2024-03-02T20:57:15.103Z,0.55
2024-03-02T20:59:41.851Z,0.95
2024-03-02T21:02:08.659Z,0.52
2024-03-02T21:04:35.322Z,0.70
2024-03-02T21:07:03.999Z,1.20
2024-03-02T21:09:30.784Z,1.30
2024-03-02T21:11:57.617Z,0.70
2024-03-02T21:14:24.318Z,0.95
2024-03-02T21:16:52.007Z,0.60
2024-03-02T21:19:22.254Z,0.50
2024-03-02T21:21:49.072Z,0.68
2024-03-02T21:24:15.868Z,0.52
2024-03-02T21:26:43.456Z,1.10
2024-03-02T21:29:12.161Z,0.57
2024-03-02T21:31:39.016Z,1.08
2024-03-02T21:34:05.896Z,0.50
2024-03-02T21:36:33.739Z,1.02
2024-03-02T21:39:03.571Z,0.80
2024-03-02T21:41:31.959Z,0.88
2024-03-02T21:43:58.657Z,0.80
2024-03-02T21:46:25.307Z,0.60
2024-03-02T21:48:53.135Z,0.60
2024-03-02T21:51:20.202Z,0.85
2024-03-02T21:53:47.100Z,0.85
2024-03-02T21:56:14.071Z,0.98
2024-03-02T21:58:41.123Z,0.45
2024-03-02T22:01:08.759Z,1.63
2024-03-02T22:03:35.542Z,0.93
2024-03-02T22:06:02.261Z,1.52
2024-03-02T22:08:29.074Z,0.88
2024-03-02T22:10:56.206Z,0.60
2024-03-02T22:13:23.046Z,1.00
2024-03-02T22:15:50.172Z,0.80
2024-03-02T22:18:16.923Z,0.73
2024-03-02T22:20:43.644Z,0.85
2024-03-02T22:23:10.323Z,1.27
2024-03-02T22:25:37.097Z,1.13
2024-03-02T22:28:03.976Z,1.45
2024-03-02T22:30:30.798Z,0.57
2024-03-02T22:32:58.488Z,1.55
2024-03-02T22:35:28.138Z,0.88
2024-03-02T22:37:55.285Z,0.70
2024-03-02T22:40:23.972Z,0.60
2024-03-02T22:42:50.732Z,0.75
2024-03-02T22:45:17.484Z,1.02
2024-03-02T22:47:44.193Z,0.60
2024-03-02T22:50:11.251Z,0.50
2024-03-02T22:52:37.966Z,1.00
2024-03-02T22:55:05.225Z,1.17
2024-03-02T22:57:31.970Z,0.80
2024-03-02T22:59:58.619Z,1.05
2024-03-02T23:02:25.312Z,0.70
2024-03-02T23:04:52.550Z,0.85
2024-03-02T23:07:23.222Z,1.52
2024-03-02T23:09:50.290Z,0.32
2024-03-02T23:12:17.220Z,0.40
2024-03-02T23:14:43.972Z,0.60
2024-03-02T23:17:11.253Z,1.15
2024-03-02T23:19:38.059Z,0.68
2024-03-02T23:22:06.396Z,0.35
2024-03-02T23:24:33.225Z,0.70
2024-03-02T23:27:00.001Z,0.57
2024-03-02T23:29:27.451Z,0.32
2024-03-02T23:31:54.104Z,1.90
2024-03-02T23:34:20.865Z,0.22
2024-03-02T23:36:47.846Z,0.30
2024-03-02T23:39:34.522Z,0.10
2024-03-02T23:42:01.136Z,0.77
2024-03-02T23:44:27.788Z,0.63
2024-03-02T23:46:54.448Z,0.20
2024-03-02T23:49:21.139Z,0.43
2024-03-02T23:51:47.896Z,0.93
2024-03-02T23:54:14.582Z,0.15
2024-03-02T23:56:41.207Z,0.80
2024-03-02T23:59:08.089Z,0.40
